Marietta, GA (30006)

11:19 AM EDT on August 30, 2016 (GMT -0400)
MesoWest | | Change Station

Elev 1062 ft 33.97 °N, 84.53 °W | Updated 29 minutes ago

Scattered Clouds
Scattered Clouds
81 °F
Feels Like 84 °F
N
2
Wind Variable Wind from ENE
Gusts 11.0 mph

Today
High -- | Low -- °F
--% Chance of Precip.
Yesterday
High -- | Low -- °F
Precip. -- in
Pressure 30.10 in
Visibility 10.0 miles
Clouds Scattered Clouds 2800 ft
Scattered Clouds 25000 ft
Heat Index 84 °F
Dew Point 67 °F
Humidity 63%
Rainfall in
Snow Depth Not available.
7:10 AM 8:05 PM
Waning Crescent, 3% visible
METAR KMGE 301458Z VRB03KT 10SM SCT028 SCT250 28/20 A3013 RMK AO2A SLP192 T02810203 $
Pressure 30.10 in
Visibility 10.0 miles
Clouds Scattered Clouds 2800 ft
Scattered Clouds 25000 ft
Heat Index 84 °F
Dew Point 67 °F
Humidity 63%
Rainfall in
Snow Depth Not available.
7:10 AM 8:05 PM
Waning Crescent, 3% visible
METAR KMGE 301458Z VRB03KT 10SM SCT028 SCT250 28/20 A3013 RMK AO2A SLP192 T02810203 $

10-Day Weather Forecast

Almanac

Astronomy

Aug. 30, 2016 Rise Set
Actual Time
Civil Twilight
Nautical Twilight
Astronomical Twilight
Moon
Length of Visible Light
Length of Day
Tomorrow will be .
, % of the Moon is Illuminated

Today's Extremes

State Highs State Lows

Community

WunderPhotos

Upload Photos

1,935,855 photos uploaded!

WunderBlog® & News

Nearby

Air Quality

  Air Quality AQ Index Pollutant
Not available.

Snow Depth

Station Depth Elevation

Earthquake Activity

City Distance Mag. Time & Date
Minimum magnitude displayed is 2.5.

Coastal Water Temperatures

Place Temperature

Stations

Nearby Weather Stations

Station Location Temp. Windchill Dew Point Humidity Wind Precip. Elev Updated Type
                   

Watches & Warnings

There are currently no watches in effect.